sensor_id;sensor_type;location;lat;lon;timestamp;pressure;altitude;pressure_sealevel;temperature;humidity
57232;BME280;43488;46.934;8.276;2022-11-03T00:02:09;96922.47;;;8.57;94.83
57232;BME280;43488;46.934;8.276;2022-11-03T00:04:36;96920.75;;;8.49;96.00
57232;BME280;43488;46.934;8.276;2022-11-03T00:07:03;96917.25;;;8.42;96.42
57232;BME280;43488;46.934;8.276;2022-11-03T00:09:31;96913.97;;;8.40;96.01
57232;BME280;43488;46.934;8.276;2022-11-03T00:11:58;96918.88;;;8.43;97.08
57232;BME280;43488;46.934;8.276;2022-11-03T00:14:26;96912.63;;;8.44;98.17
57232;BME280;43488;46.934;8.276;2022-11-03T00:16:54;96909.53;;;8.41;98.58
57232;BME280;43488;46.934;8.276;2022-11-03T00:19:21;96917.88;;;8.44;98.50
57232;BME280;43488;46.934;8.276;2022-11-03T00:21:51;96906.56;;;8.44;97.94
57232;BME280;43488;46.934;8.276;2022-11-03T00:24:18;96905.38;;;8.46;96.97
57232;BME280;43488;46.934;8.276;2022-11-03T00:26:45;96912.00;;;8.42;95.09
57232;BME280;43488;46.934;8.276;2022-11-03T00:29:13;96901.59;;;8.34;94.71
57232;BME280;43488;46.934;8.276;2022-11-03T00:31:57;96899.50;;;8.30;94.38
57232;BME280;43488;46.934;8.276;2022-11-03T00:34:25;96894.63;;;8.26;94.77
57232;BME280;43488;46.934;8.276;2022-11-03T00:36:52;96889.19;;;8.28;94.62
57232;BME280;43488;46.934;8.276;2022-11-03T00:39:19;96882.31;;;8.27;94.75
57232;BME280;43488;46.934;8.276;2022-11-03T00:41:46;96880.22;;;8.22;96.30
57232;BME280;43488;46.934;8.276;2022-11-03T00:44:14;96882.41;;;8.19;98.19
57232;BME280;43488;46.934;8.276;2022-11-03T00:46:43;96882.22;;;8.20;98.71
57232;BME280;43488;46.934;8.276;2022-11-03T00:49:10;96866.78;;;8.25;99.15
57232;BME280;43488;46.934;8.276;2022-11-03T00:51:38;96868.94;;;8.22;98.20
57232;BME280;43488;46.934;8.276;2022-11-03T00:54:05;96871.22;;;8.25;98.43
57232;BME280;43488;46.934;8.276;2022-11-03T00:56:36;96865.97;;;8.25;97.58
57232;BME280;43488;46.934;8.276;2022-11-03T00:59:06;96865.59;;;8.13;97.02
57232;BME280;43488;46.934;8.276;2022-11-03T01:01:38;96858.38;;;8.01;96.87
57232;BME280;43488;46.934;8.276;2022-11-03T01:04:09;96857.66;;;7.92;96.90
57232;BME280;43488;46.934;8.276;2022-11-03T01:06:58;96849.44;;;7.80;97.07
57232;BME280;43488;46.934;8.276;2022-11-03T01:09:29;96851.16;;;7.88;97.44
57232;BME280;43488;46.934;8.276;2022-11-03T01:12:12;96852.06;;;7.80;97.44
57232;BME280;43488;46.934;8.276;2022-11-03T01:14:51;96858.38;;;7.86;97.97
57232;BME280;43488;46.934;8.276;2022-11-03T01:17:23;96847.75;;;7.87;97.06
57232;BME280;43488;46.934;8.276;2022-11-03T01:19:51;96855.41;;;7.89;96.93
57232;BME280;43488;46.934;8.276;2022-11-03T01:22:20;96857.41;;;7.87;96.66
57232;BME280;43488;46.934;8.276;2022-11-03T01:24:48;96857.94;;;7.82;96.83
57232;BME280;43488;46.934;8.276;2022-11-03T01:27:18;96861.00;;;7.86;97.24
57232;BME280;43488;46.934;8.276;2022-11-03T01:29:45;96859.03;;;7.88;97.63
57232;BME280;43488;46.934;8.276;2022-11-03T01:32:13;96862.66;;;7.87;96.47
57232;BME280;43488;46.934;8.276;2022-11-03T01:34:41;96868.06;;;7.70;96.14
57232;BME280;43488;46.934;8.276;2022-11-03T01:37:08;96863.00;;;7.69;95.86
57232;BME280;43488;46.934;8.276;2022-11-03T01:39:35;96854.16;;;7.70;95.96
57232;BME280;43488;46.934;8.276;2022-11-03T01:42:03;96856.59;;;7.72;95.88
57232;BME280;43488;46.934;8.276;2022-11-03T01:44:45;96853.41;;;7.76;95.28
57232;BME280;43488;46.934;8.276;2022-11-03T01:47:27;96849.34;;;7.74;95.96
57232;BME280;43488;46.934;8.276;2022-11-03T01:50:09;96846.91;;;7.72;96.07
57232;BME280;43488;46.934;8.276;2022-11-03T01:52:50;96841.88;;;7.70;95.50
57232;BME280;43488;46.934;8.276;2022-11-03T01:55:28;96841.41;;;7.67;96.64
57232;BME280;43488;46.934;8.276;2022-11-03T01:58:21;96832.28;;;7.63;96.02
57232;BME280;43488;46.934;8.276;2022-11-03T02:00:53;96828.94;;;7.54;96.11
57232;BME280;43488;46.934;8.276;2022-11-03T02:03:22;96829.19;;;7.45;97.26
57232;BME280;43488;46.934;8.276;2022-11-03T02:05:50;96825.22;;;7.49;97.25
57232;BME280;43488;46.934;8.276;2022-11-03T02:08:30;96818.44;;;7.39;96.87
57232;BME280;43488;46.934;8.276;2022-11-03T02:11:00;96824.31;;;7.41;97.17
57232;BME280;43488;46.934;8.276;2022-11-03T02:13:47;96822.16;;;7.45;97.97
57232;BME280;43488;46.934;8.276;2022-11-03T02:16:15;96819.81;;;7.50;98.99
57232;BME280;43488;46.934;8.276;2022-11-03T02:18:44;96809.50;;;7.49;99.27
57232;BME280;43488;46.934;8.276;2022-11-03T02:27:05;96798.75;;;7.44;98.55
57232;BME280;43488;46.934;8.276;2022-11-03T02:29:32;96804.63;;;7.46;98.21
57232;BME280;43488;46.934;8.276;2022-11-03T02:32:47;96800.75;;;7.41;98.00
57232;BME280;43488;46.934;8.276;2022-11-03T02:35:21;96794.88;;;7.39;97.89
57232;BME280;43488;46.934;8.276;2022-11-03T02:37:55;96792.78;;;7.35;98.41
57232;BME280;43488;46.934;8.276;2022-11-03T02:40:32;96787.81;;;7.25;99.26
57232;BME280;43488;46.934;8.276;2022-11-03T02:43:02;96786.47;;;7.29;98.28
57232;BME280;43488;46.934;8.276;2022-11-03T02:45:31;96785.84;;;7.27;98.33
57232;BME280;43488;46.934;8.276;2022-11-03T02:48:00;96773.66;;;7.34;98.28
57232;BME280;43488;46.934;8.276;2022-11-03T02:50:32;96773.75;;;7.41;97.50
57232;BME280;43488;46.934;8.276;2022-11-03T02:53:00;96770.47;;;7.39;96.93
57232;BME280;43488;46.934;8.276;2022-11-03T02:56:03;96770.03;;;7.35;96.65
57232;BME280;43488;46.934;8.276;2022-11-03T02:58:56;96765.50;;;7.29;96.26
57232;BME280;43488;46.934;8.276;2022-11-03T03:01:36;96760.00;;;7.24;96.65
57232;BME280;43488;46.934;8.276;2022-11-03T03:04:24;96752.06;;;7.18;97.65
57232;BME280;43488;46.934;8.276;2022-11-03T03:07:07;96753.97;;;7.24;99.98
57232;BME280;43488;46.934;8.276;2022-11-03T03:10:04;96753.41;;;7.28;99.86
57232;BME280;43488;46.934;8.276;2022-11-03T03:12:36;96742.94;;;7.28;98.15
57232;BME280;43488;46.934;8.276;2022-11-03T03:15:08;96738.50;;;7.29;97.31
57232;BME280;43488;46.934;8.276;2022-11-03T03:17:53;96739.59;;;7.20;95.94
57232;BME280;43488;46.934;8.276;2022-11-03T03:20:44;96744.00;;;7.19;97.18
57232;BME280;43488;46.934;8.276;2022-11-03T03:23:19;96738.16;;;7.17;97.87
57232;BME280;43488;46.934;8.276;2022-11-03T03:26:00;96737.53;;;7.15;97.94
57232;BME280;43488;46.934;8.276;2022-11-03T03:28:55;96734.91;;;7.15;99.19
57232;BME280;43488;46.934;8.276;2022-11-03T03:31:25;96727.41;;;7.12;99.39
57232;BME280;43488;46.934;8.276;2022-11-03T03:33:56;96724.53;;;7.07;99.37
57232;BME280;43488;46.934;8.276;2022-11-03T03:36:26;96717.75;;;6.98;100.00
57232;BME280;43488;46.934;8.276;2022-11-03T03:39:00;96719.56;;;6.97;100.00
57232;BME280;43488;46.934;8.276;2022-11-03T03:41:29;96715.19;;;6.90;100.00
57232;BME280;43488;46.934;8.276;2022-11-03T03:44:02;96715.22;;;7.04;100.00
57232;BME280;43488;46.934;8.276;2022-11-03T03:46:43;96709.00;;;7.05;100.00
57232;BME280;43488;46.934;8.276;2022-11-03T03:49:12;96706.47;;;6.97;99.42
57232;BME280;43488;46.934;8.276;2022-11-03T03:51:40;96707.34;;;6.90;100.00
57232;BME280;43488;46.934;8.276;2022-11-03T03:54:08;96701.41;;;6.96;100.00
57232;BME280;43488;46.934;8.276;2022-11-03T03:56:51;96702.03;;;6.98;99.35
57232;BME280;43488;46.934;8.276;2022-11-03T03:59:20;96695.63;;;7.00;98.82
57232;BME280;43488;46.934;8.276;2022-11-03T04:01:48;96695.19;;;6.97;98.50
57232;BME280;43488;46.934;8.276;2022-11-03T04:04:16;96691.56;;;6.98;99.00
57232;BME280;43488;46.934;8.276;2022-11-03T04:06:44;96700.41;;;6.97;100.00
57232;BME280;43488;46.934;8.276;2022-11-03T04:09:12;96689.28;;;6.95;100.00
57232;BME280;43488;46.934;8.276;2022-11-03T04:11:39;96680.81;;;6.93;100.00
57232;BME280;43488;46.934;8.276;2022-11-03T04:14:26;96682.44;;;6.94;100.00
57232;BME280;43488;46.934;8.276;2022-11-03T04:17:19;96680.47;;;6.96;100.00
57232;BME280;43488;46.934;8.276;2022-11-03T04:20:11;96671.09;;;6.87;100.00
57232;BME280;43488;46.934;8.276;2022-11-03T04:22:57;96672.34;;;6.91;100.00
57232;BME280;43488;46.934;8.276;2022-11-03T04:25:25;96677.03;;;6.95;100.00
57232;BME280;43488;46.934;8.276;2022-11-03T04:27:52;96663.78;;;6.97;100.00
57232;BME280;43488;46.934;8.276;2022-11-03T04:30:21;96661.88;;;6.91;100.00
57232;BME280;43488;46.934;8.276;2022-11-03T04:32:52;96658.97;;;6.85;100.00
57232;BME280;43488;46.934;8.276;2022-11-03T04:35:27;96659.16;;;6.84;100.00
57232;BME280;43488;46.934;8.276;2022-11-03T04:40:46;96658.16;;;6.85;100.00
57232;BME280;43488;46.934;8.276;2022-11-03T04:43:17;96654.09;;;6.82;100.00
57232;BME280;43488;46.934;8.276;2022-11-03T04:45:47;96654.81;;;6.76;100.00
57232;BME280;43488;46.934;8.276;2022-11-03T04:48:20;96653.44;;;6.66;100.00
57232;BME280;43488;46.934;8.276;2022-11-03T04:50:56;96651.38;;;6.61;100.00
57232;BME280;43488;46.934;8.276;2022-11-03T04:53:29;96641.72;;;6.62;100.00
57232;BME280;43488;46.934;8.276;2022-11-03T04:55:57;96652.13;;;6.70;100.00
57232;BME280;43488;46.934;8.276;2022-11-03T04:58:32;96642.09;;;6.73;100.00
57232;BME280;43488;46.934;8.276;2022-11-03T05:01:02;96638.66;;;6.73;100.00
57232;BME280;43488;46.934;8.276;2022-11-03T05:03:34;96633.06;;;6.76;100.00
57232;BME280;43488;46.934;8.276;2022-11-03T05:06:15;96633.78;;;6.84;100.00
57232;BME280;43488;46.934;8.276;2022-11-03T05:08:47;96621.38;;;6.87;100.00
57232;BME280;43488;46.934;8.276;2022-11-03T05:14:00;96615.94;;;6.88;100.00
57232;BME280;43488;46.934;8.276;2022-11-03T05:16:28;96611.22;;;6.83;100.00
57232;BME280;43488;46.934;8.276;2022-11-03T05:18:57;96609.25;;;6.85;100.00
57232;BME280;43488;46.934;8.276;2022-11-03T05:21:26;96604.00;;;6.85;100.00
57232;BME280;43488;46.934;8.276;2022-11-03T05:24:02;96591.75;;;6.86;100.00
57232;BME280;43488;46.934;8.276;2022-11-03T05:26:33;96585.69;;;6.85;100.00
57232;BME280;43488;46.934;8.276;2022-11-03T05:31:49;96574.88;;;6.89;100.00
57232;BME280;43488;46.934;8.276;2022-11-03T05:34:31;96576.31;;;6.91;100.00
57232;BME280;43488;46.934;8.276;2022-11-03T05:37:18;96576.13;;;6.93;100.00
57232;BME280;43488;46.934;8.276;2022-11-03T05:39:47;96572.59;;;7.00;100.00
57232;BME280;43488;46.934;8.276;2022-11-03T05:44:50;96563.31;;;6.98;100.00
57232;BME280;43488;46.934;8.276;2022-11-03T05:47:25;96567.75;;;6.97;100.00
57232;BME280;43488;46.934;8.276;2022-11-03T05:50:08;96571.50;;;6.95;100.00
57232;BME280;43488;46.934;8.276;2022-11-03T05:52:37;96573.31;;;6.94;100.00
57232;BME280;43488;46.934;8.276;2022-11-03T05:55:19;96571.25;;;6.90;100.00
57232;BME280;43488;46.934;8.276;2022-11-03T05:57:47;96576.22;;;6.84;100.00
57232;BME280;43488;46.934;8.276;2022-11-03T06:00:41;96572.50;;;6.94;100.00
57232;BME280;43488;46.934;8.276;2022-11-03T06:03:15;96579.03;;;6.98;100.00
57232;BME280;43488;46.934;8.276;2022-11-03T06:05:46;96575.22;;;7.00;100.00
57232;BME280;43488;46.934;8.276;2022-11-03T06:08:20;96582.25;;;7.00;100.00
57232;BME280;43488;46.934;8.276;2022-11-03T06:10:52;96574.59;;;6.98;100.00
57232;BME280;43488;46.934;8.276;2022-11-03T06:13:31;96567.75;;;6.97;100.00
57232;BME280;43488;46.934;8.276;2022-11-03T06:16:23;96566.56;;;6.85;100.00
57232;BME280;43488;46.934;8.276;2022-11-03T06:19:00;96558.47;;;6.80;100.00
57232;BME280;43488;46.934;8.276;2022-11-03T06:21:27;96558.66;;;6.78;100.00
57232;BME280;43488;46.934;8.276;2022-11-03T06:23:55;96555.28;;;6.84;100.00
57232;BME280;43488;46.934;8.276;2022-11-03T06:26:26;96552.94;;;6.90;100.00
57232;BME280;43488;46.934;8.276;2022-11-03T06:28:55;96556.91;;;6.85;100.00
57232;BME280;43488;46.934;8.276;2022-11-03T06:31:26;96554.66;;;6.82;100.00
57232;BME280;43488;46.934;8.276;2022-11-03T06:33:57;96552.59;;;6.78;100.00
57232;BME280;43488;46.934;8.276;2022-11-03T06:36:35;96551.94;;;6.76;100.00
57232;BME280;43488;46.934;8.276;2022-11-03T06:39:21;96542.13;;;6.78;100.00
57232;BME280;43488;46.934;8.276;2022-11-03T06:41:50;96541.25;;;6.71;100.00
57232;BME280;43488;46.934;8.276;2022-11-03T06:44:25;96541.69;;;6.74;100.00
57232;BME280;43488;46.934;8.276;2022-11-03T06:46:59;96542.34;;;6.62;100.00
57232;BME280;43488;46.934;8.276;2022-11-03T06:49:33;96543.22;;;6.69;100.00
57232;BME280;43488;46.934;8.276;2022-11-03T06:52:36;96546.28;;;6.72;100.00
57232;BME280;43488;46.934;8.276;2022-11-03T06:57:38;96545.56;;;6.78;100.00
57232;BME280;43488;46.934;8.276;2022-11-03T07:00:26;96533.47;;;6.77;100.00
57232;BME280;43488;46.934;8.276;2022-11-03T07:03:15;96532.38;;;6.87;100.00
57232;BME280;43488;46.934;8.276;2022-11-03T07:05:44;96532.81;;;6.90;100.00
57232;BME280;43488;46.934;8.276;2022-11-03T07:08:29;96521.78;;;6.95;100.00
57232;BME280;43488;46.934;8.276;2022-11-03T07:11:25;96524.28;;;7.03;100.00
57232;BME280;43488;46.934;8.276;2022-11-03T07:13:57;96525.66;;;7.13;100.00
57232;BME280;43488;46.934;8.276;2022-11-03T07:17:10;96526.06;;;7.17;100.00
57232;BME280;43488;46.934;8.276;2022-11-03T07:19:39;96516.91;;;7.28;100.00
57232;BME280;43488;46.934;8.276;2022-11-03T07:22:25;96517.00;;;7.34;100.00
57232;BME280;43488;46.934;8.276;2022-11-03T07:24:56;96511.19;;;7.39;100.00
57232;BME280;43488;46.934;8.276;2022-11-03T07:27:38;96508.63;;;7.46;100.00
57232;BME280;43488;46.934;8.276;2022-11-03T07:30:20;96508.50;;;7.54;100.00
57232;BME280;43488;46.934;8.276;2022-11-03T07:32:53;96495.41;;;7.54;100.00
57232;BME280;43488;46.934;8.276;2022-11-03T07:35:32;96505.31;;;7.58;100.00
57232;BME280;43488;46.934;8.276;2022-11-03T07:38:10;96491.28;;;7.66;100.00
57232;BME280;43488;46.934;8.276;2022-11-03T07:40:39;96500.41;;;7.70;100.00
57232;BME280;43488;46.934;8.276;2022-11-03T07:43:26;96499.44;;;7.78;100.00
57232;BME280;43488;46.934;8.276;2022-11-03T07:46:00;96482.94;;;7.84;100.00
57232;BME280;43488;46.934;8.276;2022-11-03T07:54:17;96479.75;;;8.16;100.00
57232;BME280;43488;46.934;8.276;2022-11-03T07:59:51;96480.41;;;8.25;100.00
57232;BME280;43488;46.934;8.276;2022-11-03T08:04:58;96475.88;;;8.40;100.00
57232;BME280;43488;46.934;8.276;2022-11-03T08:07:27;96476.50;;;8.42;100.00
57232;BME280;43488;46.934;8.276;2022-11-03T08:09:55;96469.44;;;8.49;100.00
57232;BME280;43488;46.934;8.276;2022-11-03T08:12:22;96475.50;;;8.50;100.00
57232;BME280;43488;46.934;8.276;2022-11-03T08:14:50;96469.09;;;8.59;100.00
57232;BME280;43488;46.934;8.276;2022-11-03T08:17:17;96465.94;;;8.70;100.00
57232;BME280;43488;46.934;8.276;2022-11-03T08:19:45;96460.75;;;8.90;100.00
57232;BME280;43488;46.934;8.276;2022-11-03T08:22:12;96462.56;;;8.90;100.00
57232;BME280;43488;46.934;8.276;2022-11-03T08:24:39;96462.75;;;8.95;100.00
57232;BME280;43488;46.934;8.276;2022-11-03T08:27:07;96465.63;;;9.00;100.00
57232;BME280;43488;46.934;8.276;2022-11-03T08:29:35;96462.84;;;9.15;100.00
57232;BME280;43488;46.934;8.276;2022-11-03T08:32:02;96464.66;;;9.21;100.00
57232;BME280;43488;46.934;8.276;2022-11-03T08:34:29;96474.97;;;9.29;100.00
57232;BME280;43488;46.934;8.276;2022-11-03T08:36:57;96478.41;;;9.29;100.00
57232;BME280;43488;46.934;8.276;2022-11-03T08:39:25;96473.34;;;9.28;100.00
57232;BME280;43488;46.934;8.276;2022-11-03T08:41:57;96470.94;;;9.33;100.00
57232;BME280;43488;46.934;8.276;2022-11-03T08:44:25;96463.66;;;9.35;100.00
57232;BME280;43488;46.934;8.276;2022-11-03T08:46:53;96468.94;;;9.35;100.00
57232;BME280;43488;46.934;8.276;2022-11-03T08:49:20;96468.72;;;9.36;100.00
57232;BME280;43488;46.934;8.276;2022-11-03T08:51:48;96468.34;;;9.53;100.00
57232;BME280;43488;46.934;8.276;2022-11-03T08:54:15;96465.50;;;9.74;100.00
57232;BME280;43488;46.934;8.276;2022-11-03T08:56:42;96470.16;;;9.92;100.00
57232;BME280;43488;46.934;8.276;2022-11-03T08:59:10;96466.09;;;9.96;99.28
57232;BME280;43488;46.934;8.276;2022-11-03T09:01:38;96459.00;;;10.10;98.15
57232;BME280;43488;46.934;8.276;2022-11-03T09:04:05;96454.34;;;10.25;98.03
57232;BME280;43488;46.934;8.276;2022-11-03T09:06:33;96464.22;;;10.43;96.54
57232;BME280;43488;46.934;8.276;2022-11-03T09:09:00;96453.66;;;10.49;94.59
57232;BME280;43488;46.934;8.276;2022-11-03T09:11:27;96456.22;;;10.69;93.98
57232;BME280;43488;46.934;8.276;2022-11-03T09:13:54;96461.59;;;10.88;92.39
57232;BME280;43488;46.934;8.276;2022-11-03T09:16:23;96469.38;;;11.14;91.89
57232;BME280;43488;46.934;8.276;2022-11-03T09:18:50;96459.47;;;11.41;89.43
57232;BME280;43488;46.934;8.276;2022-11-03T09:21:18;96450.84;;;11.59;87.33
57232;BME280;43488;46.934;8.276;2022-11-03T09:23:45;96455.13;;;11.78;87.05
57232;BME280;43488;46.934;8.276;2022-11-03T09:26:12;96455.47;;;11.88;86.57
57232;BME280;43488;46.934;8.276;2022-11-03T09:28:39;96459.59;;;11.84;86.93
57232;BME280;43488;46.934;8.276;2022-11-03T09:31:07;96459.91;;;11.94;86.92
57232;BME280;43488;46.934;8.276;2022-11-03T09:33:34;96459.31;;;12.17;84.86
57232;BME280;43488;46.934;8.276;2022-11-03T09:36:01;96450.88;;;12.27;84.00
57232;BME280;43488;46.934;8.276;2022-11-03T09:38:29;96465.28;;;12.24;84.56
57232;BME280;43488;46.934;8.276;2022-11-03T09:40:57;96456.78;;;12.22;84.13
57232;BME280;43488;46.934;8.276;2022-11-03T09:43:25;96460.03;;;12.61;83.48
57232;BME280;43488;46.934;8.276;2022-11-03T09:45:52;96453.06;;;12.67;83.87
57232;BME280;43488;46.934;8.276;2022-11-03T09:48:20;96460.00;;;12.79;83.83
57232;BME280;43488;46.934;8.276;2022-11-03T09:50:51;96463.31;;;12.93;82.24
57232;BME280;43488;46.934;8.276;2022-11-03T09:53:20;96463.72;;;13.27;80.40
57232;BME280;43488;46.934;8.276;2022-11-03T09:55:47;96460.56;;;13.48;79.51
57232;BME280;43488;46.934;8.276;2022-11-03T09:58:16;96462.22;;;13.73;78.08
57232;BME280;43488;46.934;8.276;2022-11-03T10:00:44;96458.47;;;13.50;78.44
57232;BME280;43488;46.934;8.276;2022-11-03T10:03:14;96463.59;;;13.63;78.24
57232;BME280;43488;46.934;8.276;2022-11-03T10:05:45;96461.28;;;13.79;77.25
57232;BME280;43488;46.934;8.276;2022-11-03T10:08:27;96469.94;;;13.86;77.38
57232;BME280;43488;46.934;8.276;2022-11-03T10:10:56;96468.56;;;13.83;77.05
57232;BME280;43488;46.934;8.276;2022-11-03T10:13:34;96462.47;;;14.06;76.05
57232;BME280;43488;46.934;8.276;2022-11-03T10:16:10;96461.78;;;14.22;75.49
57232;BME280;43488;46.934;8.276;2022-11-03T10:18:41;96459.72;;;14.48;74.51
57232;BME280;43488;46.934;8.276;2022-11-03T10:21:19;96446.81;;;14.51;73.35
57232;BME280;43488;46.934;8.276;2022-11-03T10:23:47;96439.66;;;14.52;74.51
57232;BME280;43488;46.934;8.276;2022-11-03T10:26:19;96430.09;;;14.51;72.98
57232;BME280;43488;46.934;8.276;2022-11-03T10:29:02;96426.19;;;14.94;72.06
57232;BME280;43488;46.934;8.276;2022-11-03T10:31:41;96412.22;;;15.44;70.70
57232;BME280;43488;46.934;8.276;2022-11-03T10:34:32;96405.06;;;16.11;67.98
57232;BME280;43488;46.934;8.276;2022-11-03T10:37:23;96394.00;;;16.58;65.52
57232;BME280;43488;46.934;8.276;2022-11-03T10:39:53;96385.75;;;17.03;63.38
57232;BME280;43488;46.934;8.276;2022-11-03T10:42:26;96383.00;;;17.84;60.22
57232;BME280;43488;46.934;8.276;2022-11-03T10:45:19;96386.25;;;18.39;57.46
57232;BME280;43488;46.934;8.276;2022-11-03T10:48:01;96378.03;;;19.49;53.80
57232;BME280;43488;46.934;8.276;2022-11-03T10:50:30;96363.97;;;20.59;50.63
57232;BME280;43488;46.934;8.276;2022-11-03T10:52:58;96368.72;;;21.61;46.37
57232;BME280;43488;46.934;8.276;2022-11-03T10:55:25;96366.22;;;21.35;45.93
57232;BME280;43488;46.934;8.276;2022-11-03T10:57:53;96360.66;;;21.95;44.82
57232;BME280;43488;46.934;8.276;2022-11-03T11:00:24;96364.84;;;22.54;43.75
57232;BME280;43488;46.934;8.276;2022-11-03T11:02:58;96344.34;;;23.24;42.23
57232;BME280;43488;46.934;8.276;2022-11-03T11:05:26;96334.84;;;24.11;39.67
57232;BME280;43488;46.934;8.276;2022-11-03T11:07:55;96325.00;;;24.48;38.18
57232;BME280;43488;46.934;8.276;2022-11-03T11:10:30;96319.19;;;22.59;41.46
57232;BME280;43488;46.934;8.276;2022-11-03T11:16:01;96314.75;;;19.70;47.29
57232;BME280;43488;46.934;8.276;2022-11-03T11:20:58;96282.81;;;18.36;51.63
57232;BME280;43488;46.934;8.276;2022-11-03T11:28:41;96239.41;;;16.93;58.87
57232;BME280;43488;46.934;8.276;2022-11-03T11:31:32;96240.34;;;16.82;58.99
57232;BME280;43488;46.934;8.276;2022-11-03T11:36:38;96234.53;;;16.31;60.83
57232;BME280;43488;46.934;8.276;2022-11-03T11:42:07;96216.13;;;15.59;63.32
57232;BME280;43488;46.934;8.276;2022-11-03T11:47:48;96203.41;;;15.00;66.17
57232;BME280;43488;46.934;8.276;2022-11-03T11:50:24;96204.56;;;14.59;67.44
57232;BME280;43488;46.934;8.276;2022-11-03T11:53:26;96198.63;;;14.52;68.79
57232;BME280;43488;46.934;8.276;2022-11-03T11:56:01;96186.59;;;14.33;68.50
57232;BME280;43488;46.934;8.276;2022-11-03T11:58:47;96182.59;;;14.30;69.35
57232;BME280;43488;46.934;8.276;2022-11-03T12:01:32;96176.22;;;14.14;69.21
57232;BME280;43488;46.934;8.276;2022-11-03T12:04:28;96153.63;;;14.23;67.59
57232;BME280;43488;46.934;8.276;2022-11-03T12:06:57;96138.63;;;14.29;66.98
57232;BME280;43488;46.934;8.276;2022-11-03T12:09:26;96142.28;;;14.57;65.69
57232;BME280;43488;46.934;8.276;2022-11-03T12:11:57;96120.31;;;14.56;65.47
57232;BME280;43488;46.934;8.276;2022-11-03T12:14:38;96097.09;;;14.46;65.17
57232;BME280;43488;46.934;8.276;2022-11-03T12:19:51;96094.03;;;14.21;65.89
57232;BME280;43488;46.934;8.276;2022-11-03T12:24:56;96064.00;;;13.82;68.14
57232;BME280;43488;46.934;8.276;2022-11-03T12:29:57;96061.06;;;13.66;67.80
57232;BME280;43488;46.934;8.276;2022-11-03T12:32:26;96060.88;;;13.56;67.40
57232;BME280;43488;46.934;8.276;2022-11-03T12:34:53;96066.53;;;13.48;68.43
57232;BME280;43488;46.934;8.276;2022-11-03T12:37:22;96061.50;;;13.47;68.84
57232;BME280;43488;46.934;8.276;2022-11-03T12:39:50;96057.84;;;13.36;69.21
57232;BME280;43488;46.934;8.276;2022-11-03T12:42:18;96050.06;;;13.29;69.09
57232;BME280;43488;46.934;8.276;2022-11-03T12:44:46;96057.88;;;13.24;69.94
57232;BME280;43488;46.934;8.276;2022-11-03T12:47:13;96051.34;;;13.27;70.93
57232;BME280;43488;46.934;8.276;2022-11-03T12:49:40;96055.22;;;13.24;71.77
57232;BME280;43488;46.934;8.276;2022-11-03T12:52:08;96053.75;;;13.17;71.73
57232;BME280;43488;46.934;8.276;2022-11-03T12:54:36;96053.88;;;13.10;71.54
57232;BME280;43488;46.934;8.276;2022-11-03T12:57:04;96047.91;;;13.03;72.40
57232;BME280;43488;46.934;8.276;2022-11-03T12:59:31;96035.78;;;12.90;72.07
57232;BME280;43488;46.934;8.276;2022-11-03T13:01:58;96031.50;;;12.89;73.16
57232;BME280;43488;46.934;8.276;2022-11-03T13:04:26;96023.97;;;12.81;73.46
57232;BME280;43488;46.934;8.276;2022-11-03T13:06:53;96020.63;;;12.74;72.43
57232;BME280;43488;46.934;8.276;2022-11-03T13:09:20;95999.94;;;12.71;73.44
57232;BME280;43488;46.934;8.276;2022-11-03T13:11:48;96000.44;;;12.68;73.91
57232;BME280;43488;46.934;8.276;2022-11-03T13:14:34;96003.88;;;12.68;74.87
57232;BME280;43488;46.934;8.276;2022-11-03T13:17:01;95998.94;;;12.72;74.69
57232;BME280;43488;46.934;8.276;2022-11-03T13:19:29;95991.59;;;12.74;74.84
57232;BME280;43488;46.934;8.276;2022-11-03T13:21:57;95989.75;;;12.74;75.13
57232;BME280;43488;46.934;8.276;2022-11-03T13:24:24;95967.00;;;12.73;75.24
57232;BME280;43488;46.934;8.276;2022-11-03T13:26:52;95968.84;;;12.73;74.09
57232;BME280;43488;46.934;8.276;2022-11-03T13:29:19;95969.53;;;12.68;73.99
57232;BME280;43488;46.934;8.276;2022-11-03T13:31:47;95963.47;;;12.68;75.47
57232;BME280;43488;46.934;8.276;2022-11-03T13:34:14;95958.97;;;12.68;75.97
57232;BME280;43488;46.934;8.276;2022-11-03T13:36:41;95955.44;;;12.63;76.01
57232;BME280;43488;46.934;8.276;2022-11-03T13:39:09;95944.88;;;12.63;76.34
57232;BME280;43488;46.934;8.276;2022-11-03T13:41:36;95934.31;;;12.63;75.97
57232;BME280;43488;46.934;8.276;2022-11-03T13:44:04;95932.69;;;12.62;75.91
57232;BME280;43488;46.934;8.276;2022-11-03T13:46:31;95923.75;;;12.63;75.68
57232;BME280;43488;46.934;8.276;2022-11-03T13:48:58;95919.50;;;12.62;76.37
57232;BME280;43488;46.934;8.276;2022-11-03T13:51:25;95918.81;;;12.66;77.08
57232;BME280;43488;46.934;8.276;2022-11-03T13:53:53;95893.44;;;12.65;76.73
57232;BME280;43488;46.934;8.276;2022-11-03T13:56:20;95883.44;;;12.67;77.01
57232;BME280;43488;46.934;8.276;2022-11-03T13:58:47;95874.22;;;12.70;77.34
57232;BME280;43488;46.934;8.276;2022-11-03T14:01:14;95864.47;;;12.70;77.32
57232;BME280;43488;46.934;8.276;2022-11-03T14:03:42;95867.59;;;12.67;77.95
57232;BME280;43488;46.934;8.276;2022-11-03T14:06:09;95862.78;;;12.64;78.38
57232;BME280;43488;46.934;8.276;2022-11-03T14:08:37;95854.75;;;12.59;78.74
57232;BME280;43488;46.934;8.276;2022-11-03T14:11:04;95850.28;;;12.60;78.52
57232;BME280;43488;46.934;8.276;2022-11-03T14:13:51;95833.97;;;12.63;77.81
57232;BME280;43488;46.934;8.276;2022-11-03T14:16:18;95829.81;;;12.67;77.71
57232;BME280;43488;46.934;8.276;2022-11-03T14:18:46;95836.22;;;12.71;78.03
57232;BME280;43488;46.934;8.276;2022-11-03T14:21:13;95839.91;;;12.70;78.01
57232;BME280;43488;46.934;8.276;2022-11-03T14:23:41;95845.19;;;12.70;77.03
57232;BME280;43488;46.934;8.276;2022-11-03T14:26:09;95836.69;;;12.68;78.26
57232;BME280;43488;46.934;8.276;2022-11-03T14:28:38;95846.47;;;12.67;78.59
57232;BME280;43488;46.934;8.276;2022-11-03T14:31:05;95843.41;;;12.59;79.33